Historyczne dane pomiarowe

Dodano dane terminowe – wersja testowa.

Dane z okresu 1951-2019

Wersja bazy: 1.34 [2019-03-16, lista zmian], aktualizacja planowana na 2019-04-15

Dane meteo z obszaru Polski uzyskane na podstawie danych udostępnionych przez Instytut Meteorologii i Gospodarki Wodnej – Państwowy Instytut Badawczy.

 

Wybierz Datę:    

       

TemperaturaWilgotnośćWiatrCiśnienieOpadyŚniegCzas trwania zjawisk
 Stacja t tx tn tng RH VA  wxwx mslp ppp RRR   cm mm wxwxwxwxwxwxwx
1987-08-14 12.5 17.7 6.0 3.1-- 6.7 2.0---- 1.4------------
1987-08-13 12.9 18.9 4.6 1.5-- 1.7 2.3---- 0.0------------
1987-08-12 12.1 17.7 6.7 5.3-- 3.0 2.3---- 0.0------------
1987-08-11 13.1 16.6 11.4 11.1-- 6.3 2.7---- 5.0------------
1987-08-10 14.6 19.7 12.7 12.6-- 7.7 3.3---- 6.3------------
1987-08-09 17.4 23.2 10.3 6.4-- 4.3 0.3---- 9.0------------
1987-08-08 14.6 21.4 8.2 5.4-- 2.0 1.7---- 0.0------------
1987-08-07 12.0 18.0 6.4 5.0-- 3.7 2.0---- 0.0------------
1987-08-06 11.9 15.2 10.0 8.4-- 5.3 2.0---- 0.8------------
1987-08-05 12.6 18.1 7.5 5.1-- 1.7 2.0---- 0.0------------
1987-08-04 13.6 16.7 11.5 8.9-- 5.7 2.0---- 1.5------------
1987-08-03 13.6 18.3 10.0 9.7-- 4.3 2.3---- 0.3------------
1987-08-02 13.9 18.0 10.5 9.9-- 4.7 4.3---- 1.0------------
1987-08-01 15.4 19.0 12.5 10.9-- 7.7 3.3---- 3.2------------
1987-07-31 15.8 19.5 13.4 13.9-- 7.7 3.0---- 4.0------------
1987-07-30 17.5 23.7 8.9 6.4-- 2.0 1.0---- 4.0------------
1987-07-29 14.5 19.0 10.5 9.9-- 6.3 1.7---- 0.0------------
1987-07-28 13.6 17.2 11.7 11.4-- 7.7 2.7---- 1.6------------
1987-07-27 12.2 16.9 7.0 5.2-- 7.7 3.7---- 2.9------------
1987-07-26 13.2 17.5 11.7 9.8-- 5.7 2.0---- 0.1------------
1987-07-25 17.6 21.6 15.8 12.5-- 7.0 2.7---- 0.1------------
1987-07-24 20.7 25.1 14.5 13.4-- 3.7 1.7---- 0.1------------
1987-07-23 19.8 26.7 10.8 9.6-- 0.7 1.0---- 0.0------------
1987-07-22 18.7 21.0 17.0 16.3-- 5.0 1.3---- 0.0------------
1987-07-21 18.5 24.1 10.9 9.2-- 1.7 0.7---- 0.6------------
1987-07-20 18.0 21.3 15.7 15.3-- 4.0 2.3---- 0.0------------
1987-07-19 18.4 23.3 16.8 18.1-- 8.0 3.7---- 8.6------------
1987-07-18 21.3 25.5 16.5 15.5-- 5.3 5.0---- 0.0------------
1987-07-17 21.0 27.4 15.5 14.2-- 4.0 4.3---- 0.7------------
1987-07-16 19.3 25.4 11.8 8.9-- 1.7 1.7---- 0.0------------
1987-07-15 16.4 22.4 7.8 5.2-- 1.3 3.0---- 0.0------------
1987-07-14 15.4 20.4 8.2 5.4-- 1.3 1.0---- 0.0------------
1987-07-13 15.8 19.1 11.5 8.6-- 5.7 3.0---- 0.0------------
1987-07-12 19.9 27.1 14.5 13.7-- 6.3 3.7---- 5.2------------
1987-07-11 16.4 22.0 10.5 6.9-- 6.3 4.3---- 0.6------------
1987-07-10 14.2 17.5 9.8 8.1-- 4.3 3.7---- 0.0------------
1987-07-09 16.9 22.6 15.2 15.3-- 8.0 2.3---- 0.1------------
1987-07-08 21.7 28.8 16.1 14.6-- 4.0 2.3---- 7.7------------
1987-07-07 20.1 26.9 10.7 8.9-- 0.7 1.7---- 0.0------------
1987-07-06 18.0 24.0 8.6 7.1-- 0.3 0.3---- 0.0------------
1987-07-05 15.8 19.0 10.5 9.4-- 3.3 2.3---- 0.0------------
1987-07-04 18.1 22.1 12.6 11.9-- 4.0 1.0---- 0.0------------
1987-07-03 18.0 22.7 11.3 10.2-- 1.7 1.3---- 0.0------------
1987-07-02 18.6 21.4 16.9 12.8-- 6.0 1.0---- 0.0------------
1987-07-01 23.6 30.4 19.9 18.8-- 3.7 1.3---- 4.4------------
1987-06-30 24.4 28.9 17.1 16.0-- 0.0 0.7---- 0.0------------
1987-06-29 20.2 24.8 14.9 12.4-- 3.7 1.3---- 0.0------------
1987-06-28 18.1 23.1 13.9 12.4-- 5.7 3.3---- 0.0------------
1987-06-27 17.6 21.4 15.5 14.4-- 5.0 2.7---- 0.4------------
1987-06-26 17.0 22.9 10.1 8.4-- 1.7 1.0---- 6.8------------
1987-06-25 13.9 17.1 11.3 11.8-- 6.3 2.7---- 0.0------------
1987-06-24 15.9 19.7 11.7 10.1-- 6.0 2.3---- 7.0------------
1987-06-23 15.9 20.0 12.7 12.1-- 6.3 1.3---- 0.0------------
1987-06-22 16.3 22.1 10.7 8.2-- 4.3 3.3---- 12.2------------
1987-06-21 17.8 23.9 10.5 8.3-- 1.3 1.7---- 0.0------------
1987-06-20 15.3 21.0 8.2 6.4-- 7.3 2.7---- 0.0------------
1987-06-19 12.5 17.1 6.7 5.4-- 5.0 4.3---- 0.0------------
1987-06-18 10.6 15.0 5.8 4.0-- 3.3 3.7---- 1.2------------
1987-06-17 11.7 14.3 9.5 8.4-- 5.3 4.3---- 0.0------------
1987-06-16 12.2 25.4 9.5 10.4-- 8.0 4.3---- 6.5------------
389.3 ms

 

Źródłem pochodzenia danych jest Instytut Meteorologii i Gospodarki Wodnej – Państwowy Instytut Badawczy. Dane Instytutu Meteorologii i Gospodarki Wodnej – Państwowego Instytutu Badawczego zostały przetworzone.

Dane źródłowe można odnaleźć na stronie https://dane.imgw.pl